sensor_id;sensor_type;location;lat;lon;timestamp;temperature;humidity
4739;DHT22;2383;48.632;10.156;2023-07-28T00:03:01;15.90;99.90
4739;DHT22;2383;48.632;10.156;2023-07-28T00:07:04;15.80;99.90
4739;DHT22;2383;48.632;10.156;2023-07-28T00:11:10;15.90;99.90
4739;DHT22;2383;48.632;10.156;2023-07-28T00:15:13;15.90;99.90
4739;DHT22;2383;48.632;10.156;2023-07-28T00:19:15;15.90;99.90
4739;DHT22;2383;48.632;10.156;2023-07-28T00:23:18;15.80;99.90
4739;DHT22;2383;48.632;10.156;2023-07-28T00:27:20;15.70;99.90
4739;DHT22;2383;48.632;10.156;2023-07-28T00:31:22;15.60;99.90
4739;DHT22;2383;48.632;10.156;2023-07-28T00:35:24;15.60;99.90
4739;DHT22;2383;48.632;10.156;2023-07-28T00:39:27;15.60;99.90
4739;DHT22;2383;48.632;10.156;2023-07-28T00:43:29;15.50;99.90
4739;DHT22;2383;48.632;10.156;2023-07-28T00:47:31;15.30;99.90
4739;DHT22;2383;48.632;10.156;2023-07-28T00:51:33;15.30;99.90
4739;DHT22;2383;48.632;10.156;2023-07-28T00:55:38;15.20;99.90
4739;DHT22;2383;48.632;10.156;2023-07-28T00:59:40;15.20;99.90
4739;DHT22;2383;48.632;10.156;2023-07-28T01:03:42;15.00;99.90
4739;DHT22;2383;48.632;10.156;2023-07-28T01:07:54;15.10;99.90
4739;DHT22;2383;48.632;10.156;2023-07-28T01:11:59;15.00;99.90
4739;DHT22;2383;48.632;10.156;2023-07-28T01:16:02;14.90;99.90
4739;DHT22;2383;48.632;10.156;2023-07-28T01:20:04;14.50;99.90
4739;DHT22;2383;48.632;10.156;2023-07-28T01:28:45;14.50;99.90
4739;DHT22;2383;48.632;10.156;2023-07-28T01:32:47;14.40;99.90
4739;DHT22;2383;48.632;10.156;2023-07-28T01:36:50;14.20;99.90
4739;DHT22;2383;48.632;10.156;2023-07-28T01:40:52;14.20;99.90
4739;DHT22;2383;48.632;10.156;2023-07-28T01:44:54;14.30;99.90
4739;DHT22;2383;48.632;10.156;2023-07-28T01:48:56;14.40;99.90
4739;DHT22;2383;48.632;10.156;2023-07-28T01:52:58;14.40;99.90
4739;DHT22;2383;48.632;10.156;2023-07-28T01:57:00;14.20;99.90
4739;DHT22;2383;48.632;10.156;2023-07-28T02:01:02;14.00;99.90
4739;DHT22;2383;48.632;10.156;2023-07-28T02:05:04;13.90;99.90
4739;DHT22;2383;48.632;10.156;2023-07-28T02:09:08;14.10;99.90
4739;DHT22;2383;48.632;10.156;2023-07-28T02:13:10;14.10;99.90
4739;DHT22;2383;48.632;10.156;2023-07-28T02:17:12;14.10;99.90
4739;DHT22;2383;48.632;10.156;2023-07-28T02:21:14;14.10;99.90
4739;DHT22;2383;48.632;10.156;2023-07-28T02:25:16;14.10;99.90
4739;DHT22;2383;48.632;10.156;2023-07-28T02:29:18;13.90;99.90
4739;DHT22;2383;48.632;10.156;2023-07-28T02:33:20;13.90;99.90
4739;DHT22;2383;48.632;10.156;2023-07-28T02:37:23;13.70;99.90
4739;DHT22;2383;48.632;10.156;2023-07-28T02:41:25;13.90;99.90
4739;DHT22;2383;48.632;10.156;2023-07-28T02:45:27;14.00;99.90
4739;DHT22;2383;48.632;10.156;2023-07-28T02:49:29;13.70;99.90
4739;DHT22;2383;48.632;10.156;2023-07-28T02:53:30;13.30;99.90
4739;DHT22;2383;48.632;10.156;2023-07-28T02:57:32;13.20;99.90
4739;DHT22;2383;48.632;10.156;2023-07-28T03:01:35;13.30;99.90
4739;DHT22;2383;48.632;10.156;2023-07-28T03:05:38;13.40;99.90
4739;DHT22;2383;48.632;10.156;2023-07-28T03:09:52;13.60;99.90
4739;DHT22;2383;48.632;10.156;2023-07-28T03:13:54;13.60;99.90
4739;DHT22;2383;48.632;10.156;2023-07-28T03:17:56;13.70;99.90
4739;DHT22;2383;48.632;10.156;2023-07-28T03:21:59;13.60;99.90
4739;DHT22;2383;48.632;10.156;2023-07-28T03:26:01;13.70;99.90
4739;DHT22;2383;48.632;10.156;2023-07-28T03:30:03;13.80;99.90
4739;DHT22;2383;48.632;10.156;2023-07-28T03:34:08;13.70;99.90
4739;DHT22;2383;48.632;10.156;2023-07-28T03:38:10;13.70;99.90
4739;DHT22;2383;48.632;10.156;2023-07-28T03:42:14;13.80;99.90
4739;DHT22;2383;48.632;10.156;2023-07-28T03:46:17;13.70;99.90
4739;DHT22;2383;48.632;10.156;2023-07-28T03:50:19;13.50;99.90
4739;DHT22;2383;48.632;10.156;2023-07-28T03:54:21;13.40;99.90
4739;DHT22;2383;48.632;10.156;2023-07-28T03:58:27;13.30;99.90
4739;DHT22;2383;48.632;10.156;2023-07-28T04:02:29;13.40;99.90
4739;DHT22;2383;48.632;10.156;2023-07-28T04:10:46;13.30;99.90
4739;DHT22;2383;48.632;10.156;2023-07-28T04:14:48;13.40;99.90
4739;DHT22;2383;48.632;10.156;2023-07-28T04:18:51;13.50;99.90
4739;DHT22;2383;48.632;10.156;2023-07-28T04:22:53;13.40;99.90
4739;DHT22;2383;48.632;10.156;2023-07-28T04:26:55;13.60;99.90
4739;DHT22;2383;48.632;10.156;2023-07-28T04:30:57;13.50;99.90
4739;DHT22;2383;48.632;10.156;2023-07-28T04:35:25;13.70;99.90
4739;DHT22;2383;48.632;10.156;2023-07-28T04:39:36;13.60;99.90
4739;DHT22;2383;48.632;10.156;2023-07-28T04:43:38;13.30;99.90
4739;DHT22;2383;48.632;10.156;2023-07-28T04:47:40;13.40;99.90
4739;DHT22;2383;48.632;10.156;2023-07-28T04:51:43;13.60;99.90
4739;DHT22;2383;48.632;10.156;2023-07-28T04:56:15;13.70;99.90
4739;DHT22;2383;48.632;10.156;2023-07-28T05:00:17;13.70;99.90
4739;DHT22;2383;48.632;10.156;2023-07-28T05:04:19;13.80;99.90
4739;DHT22;2383;48.632;10.156;2023-07-28T05:08:22;14.00;99.90
4739;DHT22;2383;48.632;10.156;2023-07-28T05:12:25;14.10;99.90
4739;DHT22;2383;48.632;10.156;2023-07-28T05:16:27;14.10;99.90
4739;DHT22;2383;48.632;10.156;2023-07-28T05:20:38;14.10;99.90
4739;DHT22;2383;48.632;10.156;2023-07-28T05:24:47;13.80;99.90
4739;DHT22;2383;48.632;10.156;2023-07-28T05:28:49;14.30;99.90
4739;DHT22;2383;48.632;10.156;2023-07-28T05:32:54;14.50;99.90
4739;DHT22;2383;48.632;10.156;2023-07-28T05:37:19;14.70;99.90
4739;DHT22;2383;48.632;10.156;2023-07-28T05:41:21;14.90;99.90
4739;DHT22;2383;48.632;10.156;2023-07-28T05:45:23;14.90;99.90
4739;DHT22;2383;48.632;10.156;2023-07-28T05:49:25;14.90;99.90
4739;DHT22;2383;48.632;10.156;2023-07-28T05:53:27;14.80;99.90
4739;DHT22;2383;48.632;10.156;2023-07-28T05:57:35;14.50;99.90
4739;DHT22;2383;48.632;10.156;2023-07-28T06:01:39;14.90;99.90
4739;DHT22;2383;48.632;10.156;2023-07-28T06:06:14;15.00;99.90
4739;DHT22;2383;48.632;10.156;2023-07-28T06:10:16;15.40;99.90
4739;DHT22;2383;48.632;10.156;2023-07-28T06:14:18;15.50;99.90
4739;DHT22;2383;48.632;10.156;2023-07-28T06:18:21;15.50;99.90
4739;DHT22;2383;48.632;10.156;2023-07-28T06:22:30;15.30;99.90
4739;DHT22;2383;48.632;10.156;2023-07-28T06:26:32;15.50;99.90
4739;DHT22;2383;48.632;10.156;2023-07-28T06:30:34;15.60;99.90
4739;DHT22;2383;48.632;10.156;2023-07-28T06:34:37;15.60;99.90
4739;DHT22;2383;48.632;10.156;2023-07-28T06:38:39;15.30;99.90
4739;DHT22;2383;48.632;10.156;2023-07-28T06:42:41;15.40;99.90
4739;DHT22;2383;48.632;10.156;2023-07-28T06:46:43;15.90;99.90
4739;DHT22;2383;48.632;10.156;2023-07-28T06:50:46;16.20;99.90
4739;DHT22;2383;48.632;10.156;2023-07-28T06:54:48;16.40;99.90
4739;DHT22;2383;48.632;10.156;2023-07-28T06:58:51;16.60;99.90
4739;DHT22;2383;48.632;10.156;2023-07-28T07:03:13;16.70;99.90
4739;DHT22;2383;48.632;10.156;2023-07-28T07:07:16;17.00;99.90
4739;DHT22;2383;48.632;10.156;2023-07-28T07:11:18;17.00;99.90
4739;DHT22;2383;48.632;10.156;2023-07-28T07:15:20;17.00;99.90
4739;DHT22;2383;48.632;10.156;2023-07-28T07:19:22;17.00;99.90
4739;DHT22;2383;48.632;10.156;2023-07-28T07:23:24;16.80;99.90
4739;DHT22;2383;48.632;10.156;2023-07-28T07:27:26;16.70;99.90
4739;DHT22;2383;48.632;10.156;2023-07-28T07:31:28;17.10;99.90
4739;DHT22;2383;48.632;10.156;2023-07-28T07:35:30;17.00;99.90
4739;DHT22;2383;48.632;10.156;2023-07-28T07:39:32;16.90;99.90
4739;DHT22;2383;48.632;10.156;2023-07-28T07:43:36;17.30;99.90
4739;DHT22;2383;48.632;10.156;2023-07-28T07:47:39;17.60;99.90
4739;DHT22;2383;48.632;10.156;2023-07-28T07:51:41;17.90;99.90
4739;DHT22;2383;48.632;10.156;2023-07-28T07:55:43;18.00;99.90
4739;DHT22;2383;48.632;10.156;2023-07-28T07:59:45;18.20;99.90
4739;DHT22;2383;48.632;10.156;2023-07-28T08:03:47;18.30;99.90
4739;DHT22;2383;48.632;10.156;2023-07-28T08:07:49;18.40;99.90
4739;DHT22;2383;48.632;10.156;2023-07-28T08:11:52;18.50;99.90
4739;DHT22;2383;48.632;10.156;2023-07-28T08:15:55;18.70;99.90
4739;DHT22;2383;48.632;10.156;2023-07-28T08:19:57;19.00;99.90
4739;DHT22;2383;48.632;10.156;2023-07-28T08:23:59;19.10;99.90
4739;DHT22;2383;48.632;10.156;2023-07-28T08:28:01;19.20;99.90
4739;DHT22;2383;48.632;10.156;2023-07-28T08:32:04;19.20;99.90
4739;DHT22;2383;48.632;10.156;2023-07-28T08:36:06;19.20;99.90
4739;DHT22;2383;48.632;10.156;2023-07-28T08:40:09;19.40;99.90
4739;DHT22;2383;48.632;10.156;2023-07-28T08:44:12;19.40;99.90
4739;DHT22;2383;48.632;10.156;2023-07-28T08:48:14;18.90;99.90
4739;DHT22;2383;48.632;10.156;2023-07-28T08:52:17;18.60;99.90
4739;DHT22;2383;48.632;10.156;2023-07-28T08:56:20;18.80;99.90
4739;DHT22;2383;48.632;10.156;2023-07-28T09:00:23;19.10;99.90
4739;DHT22;2383;48.632;10.156;2023-07-28T09:04:26;19.10;99.90
4739;DHT22;2383;48.632;10.156;2023-07-28T09:08:32;18.90;99.90
4739;DHT22;2383;48.632;10.156;2023-07-28T09:12:34;18.80;99.90
4739;DHT22;2383;48.632;10.156;2023-07-28T09:16:39;18.60;99.90
4739;DHT22;2383;48.632;10.156;2023-07-28T09:20:42;18.60;99.90
4739;DHT22;2383;48.632;10.156;2023-07-28T09:24:45;18.40;99.90
4739;DHT22;2383;48.632;10.156;2023-07-28T09:28:48;18.50;99.90
4739;DHT22;2383;48.632;10.156;2023-07-28T09:32:53;18.90;99.90
4739;DHT22;2383;48.632;10.156;2023-07-28T09:36:59;19.10;99.90
4739;DHT22;2383;48.632;10.156;2023-07-28T09:41:04;19.60;99.90
4739;DHT22;2383;48.632;10.156;2023-07-28T09:45:09;19.60;99.90
4739;DHT22;2383;48.632;10.156;2023-07-28T09:49:36;19.70;99.90
4739;DHT22;2383;48.632;10.156;2023-07-28T09:53:46;19.10;99.90
4739;DHT22;2383;48.632;10.156;2023-07-28T09:57:52;18.90;99.90
4739;DHT22;2383;48.632;10.156;2023-07-28T10:01:58;19.40;99.90
4739;DHT22;2383;48.632;10.156;2023-07-28T10:06:00;18.40;99.90
4739;DHT22;2383;48.632;10.156;2023-07-28T10:10:08;18.60;99.90
4739;DHT22;2383;48.632;10.156;2023-07-28T10:14:25;18.10;99.90
4739;DHT22;2383;48.632;10.156;2023-07-28T10:18:28;18.40;99.90
4739;DHT22;2383;48.632;10.156;2023-07-28T10:22:30;18.50;99.90
4739;DHT22;2383;48.632;10.156;2023-07-28T10:26:38;18.50;99.90
4739;DHT22;2383;48.632;10.156;2023-07-28T10:30:52;18.90;99.90
4739;DHT22;2383;48.632;10.156;2023-07-28T10:35:06;18.90;99.90
4739;DHT22;2383;48.632;10.156;2023-07-28T10:39:16;18.90;99.90
4739;DHT22;2383;48.632;10.156;2023-07-28T10:43:20;19.10;99.90
4739;DHT22;2383;48.632;10.156;2023-07-28T10:47:22;19.60;99.90
4739;DHT22;2383;48.632;10.156;2023-07-28T10:51:27;19.40;99.90
4739;DHT22;2383;48.632;10.156;2023-07-28T10:55:35;19.10;99.90
4739;DHT22;2383;48.632;10.156;2023-07-28T10:59:37;18.80;99.90
4739;DHT22;2383;48.632;10.156;2023-07-28T11:03:40;18.80;99.90
4739;DHT22;2383;48.632;10.156;2023-07-28T11:07:42;19.30;99.90
4739;DHT22;2383;48.632;10.156;2023-07-28T11:11:46;19.40;99.90
4739;DHT22;2383;48.632;10.156;2023-07-28T11:15:49;19.20;99.90
4739;DHT22;2383;48.632;10.156;2023-07-28T11:19:51;18.90;99.90
4739;DHT22;2383;48.632;10.156;2023-07-28T11:23:53;19.40;99.90
4739;DHT22;2383;48.632;10.156;2023-07-28T11:27:56;19.50;99.90
4739;DHT22;2383;48.632;10.156;2023-07-28T11:31:58;19.40;99.90
4739;DHT22;2383;48.632;10.156;2023-07-28T11:36:00;19.30;99.90
4739;DHT22;2383;48.632;10.156;2023-07-28T11:40:04;19.60;99.90
4739;DHT22;2383;48.632;10.156;2023-07-28T11:44:10;20.00;99.90
4739;DHT22;2383;48.632;10.156;2023-07-28T11:48:14;20.00;99.90
4739;DHT22;2383;48.632;10.156;2023-07-28T11:52:17;20.20;99.90
4739;DHT22;2383;48.632;10.156;2023-07-28T11:56:19;20.00;99.90
4739;DHT22;2383;48.632;10.156;2023-07-28T12:00:34;19.90;99.90
4739;DHT22;2383;48.632;10.156;2023-07-28T12:04:39;19.30;99.90
4739;DHT22;2383;48.632;10.156;2023-07-28T12:08:44;19.60;99.90
4739;DHT22;2383;48.632;10.156;2023-07-28T12:12:47;19.60;99.90
4739;DHT22;2383;48.632;10.156;2023-07-28T12:16:53;20.00;99.90
4739;DHT22;2383;48.632;10.156;2023-07-28T12:20:58;20.30;99.90
4739;DHT22;2383;48.632;10.156;2023-07-28T12:25:02;20.70;99.90
4739;DHT22;2383;48.632;10.156;2023-07-28T12:29:04;20.70;99.90
4739;DHT22;2383;48.632;10.156;2023-07-28T12:33:11;20.40;99.90
4739;DHT22;2383;48.632;10.156;2023-07-28T12:37:17;20.10;99.90
4739;DHT22;2383;48.632;10.156;2023-07-28T12:41:39;20.70;99.90
4739;DHT22;2383;48.632;10.156;2023-07-28T12:45:43;19.70;99.90
4739;DHT22;2383;48.632;10.156;2023-07-28T12:49:48;20.20;99.90
4739;DHT22;2383;48.632;10.156;2023-07-28T12:53:53;19.60;99.90
4739;DHT22;2383;48.632;10.156;2023-07-28T12:57:55;20.20;99.90
4739;DHT22;2383;48.632;10.156;2023-07-28T13:01:57;20.50;99.90
4739;DHT22;2383;48.632;10.156;2023-07-28T13:05:59;19.80;99.90
4739;DHT22;2383;48.632;10.156;2023-07-28T13:10:02;20.10;99.90
4739;DHT22;2383;48.632;10.156;2023-07-28T13:14:05;19.80;99.90
4739;DHT22;2383;48.632;10.156;2023-07-28T13:18:07;19.80;99.90
4739;DHT22;2383;48.632;10.156;2023-07-28T13:22:09;20.10;99.90
4739;DHT22;2383;48.632;10.156;2023-07-28T13:26:12;20.10;99.90
4739;DHT22;2383;48.632;10.156;2023-07-28T13:30:14;20.10;99.90
4739;DHT22;2383;48.632;10.156;2023-07-28T13:34:16;19.60;99.90
4739;DHT22;2383;48.632;10.156;2023-07-28T13:38:18;19.80;99.90
4739;DHT22;2383;48.632;10.156;2023-07-28T13:42:20;20.50;99.90
4739;DHT22;2383;48.632;10.156;2023-07-28T13:46:22;20.30;99.90
4739;DHT22;2383;48.632;10.156;2023-07-28T13:50:24;19.70;99.90
4739;DHT22;2383;48.632;10.156;2023-07-28T13:54:38;19.50;99.90
4739;DHT22;2383;48.632;10.156;2023-07-28T13:58:43;20.10;99.90
4739;DHT22;2383;48.632;10.156;2023-07-28T14:02:45;19.90;99.90
4739;DHT22;2383;48.632;10.156;2023-07-28T14:06:48;20.30;99.90
4739;DHT22;2383;48.632;10.156;2023-07-28T14:10:53;19.80;99.90
4739;DHT22;2383;48.632;10.156;2023-07-28T14:14:55;20.10;99.90
4739;DHT22;2383;48.632;10.156;2023-07-28T14:18:57;20.20;99.90
4739;DHT22;2383;48.632;10.156;2023-07-28T14:22:59;19.80;99.90
4739;DHT22;2383;48.632;10.156;2023-07-28T14:27:04;20.10;99.90
4739;DHT22;2383;48.632;10.156;2023-07-28T14:31:06;18.30;99.90
4739;DHT22;2383;48.632;10.156;2023-07-28T14:35:08;18.10;99.90
4739;DHT22;2383;48.632;10.156;2023-07-28T14:39:10;19.30;99.90
4739;DHT22;2383;48.632;10.156;2023-07-28T14:43:13;19.90;99.90
4739;DHT22;2383;48.632;10.156;2023-07-28T14:47:15;19.40;99.90
4739;DHT22;2383;48.632;10.156;2023-07-28T14:51:18;19.80;99.90
4739;DHT22;2383;48.632;10.156;2023-07-28T14:55:19;19.20;99.90
4739;DHT22;2383;48.632;10.156;2023-07-28T14:59:21;18.40;99.90
4739;DHT22;2383;48.632;10.156;2023-07-28T15:03:27;19.30;99.90
4739;DHT22;2383;48.632;10.156;2023-07-28T15:07:30;19.40;99.90
4739;DHT22;2383;48.632;10.156;2023-07-28T15:11:32;19.40;99.90
4739;DHT22;2383;48.632;10.156;2023-07-28T15:15:35;19.60;99.90
4739;DHT22;2383;48.632;10.156;2023-07-28T15:19:37;19.90;99.90
4739;DHT22;2383;48.632;10.156;2023-07-28T15:23:39;19.80;99.90
4739;DHT22;2383;48.632;10.156;2023-07-28T15:27:41;19.50;99.90
4739;DHT22;2383;48.632;10.156;2023-07-28T15:31:43;18.90;99.90
4739;DHT22;2383;48.632;10.156;2023-07-28T15:35:45;19.30;99.90
4739;DHT22;2383;48.632;10.156;2023-07-28T15:39:49;19.40;99.90
4739;DHT22;2383;48.632;10.156;2023-07-28T15:43:51;19.40;99.90
4739;DHT22;2383;48.632;10.156;2023-07-28T15:47:53;19.30;99.90
4739;DHT22;2383;48.632;10.156;2023-07-28T15:51:55;19.40;99.90
4739;DHT22;2383;48.632;10.156;2023-07-28T15:55:57;19.70;99.90
4739;DHT22;2383;48.632;10.156;2023-07-28T15:59:59;19.90;99.90
4739;DHT22;2383;48.632;10.156;2023-07-28T16:04:01;20.10;99.90
4739;DHT22;2383;48.632;10.156;2023-07-28T16:08:06;20.30;99.90
4739;DHT22;2383;48.632;10.156;2023-07-28T16:12:08;20.30;99.90
4739;DHT22;2383;48.632;10.156;2023-07-28T16:16:10;19.90;99.90
4739;DHT22;2383;48.632;10.156;2023-07-28T16:20:12;19.10;99.90
4739;DHT22;2383;48.632;10.156;2023-07-28T16:24:14;19.90;99.90
4739;DHT22;2383;48.632;10.156;2023-07-28T16:28:17;20.40;99.90
4739;DHT22;2383;48.632;10.156;2023-07-28T16:32:19;20.50;99.90
4739;DHT22;2383;48.632;10.156;2023-07-28T16:36:21;20.50;99.90
4739;DHT22;2383;48.632;10.156;2023-07-28T16:40:22;20.50;99.90
4739;DHT22;2383;48.632;10.156;2023-07-28T16:44:25;20.60;99.90
4739;DHT22;2383;48.632;10.156;2023-07-28T16:48:27;20.60;99.90
4739;DHT22;2383;48.632;10.156;2023-07-28T16:52:29;20.30;99.90
4739;DHT22;2383;48.632;10.156;2023-07-28T16:56:30;19.60;99.90
4739;DHT22;2383;48.632;10.156;2023-07-28T17:00:32;19.90;99.90
4739;DHT22;2383;48.632;10.156;2023-07-28T17:04:34;19.70;99.90
4739;DHT22;2383;48.632;10.156;2023-07-28T17:08:36;19.70;99.90
4739;DHT22;2383;48.632;10.156;2023-07-28T17:12:40;19.90;99.90
4739;DHT22;2383;48.632;10.156;2023-07-28T17:16:43;20.00;99.90
4739;DHT22;2383;48.632;10.156;2023-07-28T17:20:46;19.20;99.90
4739;DHT22;2383;48.632;10.156;2023-07-28T17:24:48;19.30;99.90
4739;DHT22;2383;48.632;10.156;2023-07-28T17:28:52;19.60;99.90
4739;DHT22;2383;48.632;10.156;2023-07-28T17:32:54;19.70;99.90
4739;DHT22;2383;48.632;10.156;2023-07-28T17:36:56;19.70;99.90
4739;DHT22;2383;48.632;10.156;2023-07-28T17:40:58;19.90;99.90
4739;DHT22;2383;48.632;10.156;2023-07-28T17:45:00;19.70;99.90
4739;DHT22;2383;48.632;10.156;2023-07-28T17:49:08;19.90;99.90
4739;DHT22;2383;48.632;10.156;2023-07-28T17:53:09;19.60;99.90
4739;DHT22;2383;48.632;10.156;2023-07-28T17:57:11;19.40;99.90
4739;DHT22;2383;48.632;10.156;2023-07-28T18:01:13;19.40;99.90
4739;DHT22;2383;48.632;10.156;2023-07-28T18:05:16;19.60;99.90
4739;DHT22;2383;48.632;10.156;2023-07-28T18:09:18;19.70;99.90
4739;DHT22;2383;48.632;10.156;2023-07-28T18:13:20;19.80;99.90
4739;DHT22;2383;48.632;10.156;2023-07-28T18:17:22;19.80;99.90
4739;DHT22;2383;48.632;10.156;2023-07-28T18:21:24;19.80;99.90
4739;DHT22;2383;48.632;10.156;2023-07-28T18:25:26;19.80;99.90
4739;DHT22;2383;48.632;10.156;2023-07-28T18:29:29;19.80;99.90
4739;DHT22;2383;48.632;10.156;2023-07-28T18:33:31;19.80;99.90
4739;DHT22;2383;48.632;10.156;2023-07-28T18:37:33;19.80;99.90
4739;DHT22;2383;48.632;10.156;2023-07-28T18:41:35;19.80;99.90
4739;DHT22;2383;48.632;10.156;2023-07-28T18:45:37;19.70;99.90
4739;DHT22;2383;48.632;10.156;2023-07-28T18:49:42;19.70;99.90
4739;DHT22;2383;48.632;10.156;2023-07-28T18:53:44;19.50;99.90
4739;DHT22;2383;48.632;10.156;2023-07-28T18:57:46;19.40;99.90
4739;DHT22;2383;48.632;10.156;2023-07-28T19:01:48;19.50;99.90
4739;DHT22;2383;48.632;10.156;2023-07-28T19:05:50;19.40;99.90
4739;DHT22;2383;48.632;10.156;2023-07-28T19:09:52;19.40;99.90
4739;DHT22;2383;48.632;10.156;2023-07-28T19:13:54;19.30;99.90
4739;DHT22;2383;48.632;10.156;2023-07-28T19:17:57;18.60;99.90
4739;DHT22;2383;48.632;10.156;2023-07-28T19:21:59;18.10;99.90
4739;DHT22;2383;48.632;10.156;2023-07-28T19:26:01;18.20;99.90
4739;DHT22;2383;48.632;10.156;2023-07-28T19:30:04;18.40;99.90
4739;DHT22;2383;48.632;10.156;2023-07-28T19:34:06;18.00;99.90
4739;DHT22;2383;48.632;10.156;2023-07-28T19:38:08;18.00;99.90
4739;DHT22;2383;48.632;10.156;2023-07-28T19:42:10;18.00;99.90
4739;DHT22;2383;48.632;10.156;2023-07-28T19:46:12;18.00;99.90
4739;DHT22;2383;48.632;10.156;2023-07-28T19:50:14;18.20;99.90
4739;DHT22;2383;48.632;10.156;2023-07-28T19:54:28;18.00;99.90
4739;DHT22;2383;48.632;10.156;2023-07-28T19:58:31;18.10;99.90
4739;DHT22;2383;48.632;10.156;2023-07-28T20:02:33;18.30;99.90
4739;DHT22;2383;48.632;10.156;2023-07-28T20:06:36;18.40;99.90
4739;DHT22;2383;48.632;10.156;2023-07-28T20:10:38;18.20;99.90
4739;DHT22;2383;48.632;10.156;2023-07-28T20:14:40;18.20;99.90
4739;DHT22;2383;48.632;10.156;2023-07-28T20:18:42;18.20;99.90
4739;DHT22;2383;48.632;10.156;2023-07-28T20:22:49;18.20;99.90
4739;DHT22;2383;48.632;10.156;2023-07-28T20:26:57;18.30;99.90
4739;DHT22;2383;48.632;10.156;2023-07-28T20:30:59;18.20;99.90
4739;DHT22;2383;48.632;10.156;2023-07-28T20:35:02;18.20;99.90
4739;DHT22;2383;48.632;10.156;2023-07-28T20:39:06;17.80;99.90
4739;DHT22;2383;48.632;10.156;2023-07-28T20:43:08;17.90;99.90
4739;DHT22;2383;48.632;10.156;2023-07-28T20:47:11;17.90;99.90
4739;DHT22;2383;48.632;10.156;2023-07-28T20:51:13;17.80;99.90
4739;DHT22;2383;48.632;10.156;2023-07-28T20:55:15;17.90;99.90
4739;DHT22;2383;48.632;10.156;2023-07-28T20:59:17;18.00;99.90
4739;DHT22;2383;48.632;10.156;2023-07-28T21:03:20;18.00;99.90
4739;DHT22;2383;48.632;10.156;2023-07-28T21:07:22;18.10;99.90
4739;DHT22;2383;48.632;10.156;2023-07-28T21:11:25;18.10;99.90
4739;DHT22;2383;48.632;10.156;2023-07-28T21:15:26;18.10;99.90
4739;DHT22;2383;48.632;10.156;2023-07-28T21:19:29;18.00;99.90
4739;DHT22;2383;48.632;10.156;2023-07-28T21:23:31;17.90;99.90
4739;DHT22;2383;48.632;10.156;2023-07-28T21:27:37;17.80;99.90
4739;DHT22;2383;48.632;10.156;2023-07-28T21:31:40;17.70;99.90
4739;DHT22;2383;48.632;10.156;2023-07-28T21:35:42;17.60;99.90
4739;DHT22;2383;48.632;10.156;2023-07-28T21:39:44;17.50;99.90
4739;DHT22;2383;48.632;10.156;2023-07-28T21:43:46;17.70;99.90
4739;DHT22;2383;48.632;10.156;2023-07-28T21:47:48;17.60;99.90
4739;DHT22;2383;48.632;10.156;2023-07-28T21:51:50;17.60;99.90
4739;DHT22;2383;48.632;10.156;2023-07-28T21:55:52;17.20;99.90
4739;DHT22;2383;48.632;10.156;2023-07-28T21:59:54;17.10;99.90
4739;DHT22;2383;48.632;10.156;2023-07-28T22:03:56;17.30;99.90
4739;DHT22;2383;48.632;10.156;2023-07-28T22:08:08;17.20;99.90
4739;DHT22;2383;48.632;10.156;2023-07-28T22:12:11;17.10;99.90
4739;DHT22;2383;48.632;10.156;2023-07-28T22:16:13;17.00;99.90
4739;DHT22;2383;48.632;10.156;2023-07-28T22:20:15;16.80;99.90
4739;DHT22;2383;48.632;10.156;2023-07-28T22:24:17;16.80;99.90
4739;DHT22;2383;48.632;10.156;2023-07-28T22:28:19;16.80;99.90
4739;DHT22;2383;48.632;10.156;2023-07-28T22:32:21;16.70;99.90
4739;DHT22;2383;48.632;10.156;2023-07-28T22:36:23;16.90;99.90
4739;DHT22;2383;48.632;10.156;2023-07-28T22:40:25;16.90;99.90
4739;DHT22;2383;48.632;10.156;2023-07-28T22:44:27;16.90;99.90
4739;DHT22;2383;48.632;10.156;2023-07-28T22:48:29;16.80;99.90
4739;DHT22;2383;48.632;10.156;2023-07-28T22:52:31;16.80;99.90
4739;DHT22;2383;48.632;10.156;2023-07-28T22:56:33;16.80;99.90
4739;DHT22;2383;48.632;10.156;2023-07-28T23:00:35;16.50;99.90
4739;DHT22;2383;48.632;10.156;2023-07-28T23:04:37;16.40;99.90
4739;DHT22;2383;48.632;10.156;2023-07-28T23:08:40;16.30;99.90
4739;DHT22;2383;48.632;10.156;2023-07-28T23:12:43;16.20;99.90
4739;DHT22;2383;48.632;10.156;2023-07-28T23:16:46;16.50;99.90
4739;DHT22;2383;48.632;10.156;2023-07-28T23:20:48;16.30;99.90
4739;DHT22;2383;48.632;10.156;2023-07-28T23:24:50;16.50;99.90
4739;DHT22;2383;48.632;10.156;2023-07-28T23:28:52;16.50;99.90
4739;DHT22;2383;48.632;10.156;2023-07-28T23:32:55;16.60;99.90
4739;DHT22;2383;48.632;10.156;2023-07-28T23:36:56;16.60;99.90
4739;DHT22;2383;48.632;10.156;2023-07-28T23:40:59;16.80;99.90
4739;DHT22;2383;48.632;10.156;2023-07-28T23:45:01;16.70;99.90
4739;DHT22;2383;48.632;10.156;2023-07-28T23:49:03;16.60;99.90
4739;DHT22;2383;48.632;10.156;2023-07-28T23:53:05;16.50;99.90
4739;DHT22;2383;48.632;10.156;2023-07-28T23:57:07;16.60;99.90
